Time;durP1;ratioP1;P1;durP2;ratioP2;P2;SDS_P1;SDS_P2;PMS_P1;PMS_P2;Temp;Humidity;BMP_temperature;BMP_pressure;BME280_temperature;BME280_humidity;BME280_pressure;Samples;Min_cycle;Max_cycle;Signal;HPM_P1;HPM_P2
2021/12/26 19:01:12;;;;;;;13.45;6.50;;;;;;;3.33;49.45;99589.72;4618215;27;20098;-75
2021/12/26 19:03:40;;;;;;;11.63;6.72;;;;;;;3.33;49.46;99572.59;4376445;32;34632;-76
2021/12/26 19:06:08;;;;;;;14.95;7.62;;;;;;;3.29;49.43;99578.34;4372515;32;34204;-76
2021/12/26 19:08:35;;;;;;;15.32;6.85;;;;;;;3.10;49.44;99581.37;4376516;32;34140;-76
2021/12/26 19:11:03;;;;;;;13.65;5.93;;;;;;;3.14;49.30;99579.19;4369491;32;33114;-75
2021/12/26 19:13:33;;;;;;;11.77;6.97;;;;;;;3.35;49.15;99581.41;4369083;32;34432;-75
2021/12/26 19:16:03;;;;;;;11.52;6.18;;;;;;;3.24;49.13;99580.75;4368376;32;34378;-75
2021/12/26 19:18:32;;;;;;;12.32;6.32;;;;;;;3.32;48.39;99585.31;4363071;32;33969;-76
2021/12/26 19:21:03;;;;;;;11.70;6.07;;;;;;;3.33;48.46;99584.31;4356161;32;32508;-75
2021/12/26 19:23:32;;;;;;;13.15;6.68;;;;;;;3.30;48.81;99582.75;4362783;32;32178;-76
2021/12/26 19:26:02;;;;;;;13.10;6.93;;;;;;;3.37;48.79;99582.94;4383992;32;35133;-76
2021/12/26 19:28:34;;;;;;;12.77;6.93;;;;;;;3.41;48.99;99578.03;4370702;32;33378;-76
2021/12/26 19:31:06;;;;;;;13.25;7.40;;;;;;;3.32;49.11;99574.47;4385149;32;32796;-76
2021/12/26 19:33:35;;;;;;;15.63;7.75;;;;;;;3.33;49.32;99586.16;4373687;32;33610;-76
2021/12/26 19:36:08;;;;;;;16.08;8.27;;;;;;;3.41;49.00;99591.59;4375869;32;33078;-76
2021/12/26 19:38:35;;;;;;;14.38;8.13;;;;;;;3.31;48.97;99589.03;4387146;32;34570;-76
2021/12/26 19:41:04;;;;;;;19.15;9.73;;;;;;;3.57;48.21;99584.38;4375020;32;33796;-76
2021/12/26 19:43:31;;;;;;;18.17;10.27;;;;;;;3.56;47.74;99588.09;4374189;32;33857;-76
2021/12/26 19:45:59;;;;;;;21.35;9.77;;;;;;;3.56;47.75;99592.66;4372496;32;34354;-76
2021/12/26 19:48:27;;;;;;;19.17;9.98;;;;;;;3.52;47.92;99591.31;4375278;32;34642;-76
2021/12/26 19:50:55;;;;;;;18.30;9.20;;;;;;;3.49;48.03;99597.06;4375664;32;33405;-77
2021/12/26 19:53:23;;;;;;;19.20;10.13;;;;;;;3.46;47.78;99592.81;4387782;32;34715;-76
2021/12/26 19:55:51;;;;;;;19.05;9.80;;;;;;;3.43;48.19;99598.56;4375730;32;34322;-76
2021/12/26 19:58:18;;;;;;;24.55;10.55;;;;;;;3.55;48.26;99599.97;4375808;32;35136;-76
2021/12/26 20:00:46;;;;;;;23.23;10.90;;;;;;;3.57;48.01;99599.78;4387285;32;33721;-76
2021/12/26 20:03:16;;;;;;;24.73;12.25;;;;;;;3.52;48.21;99597.56;4374365;32;33687;-77
2021/12/26 20:05:45;;;;;;;28.83;14.35;;;;;;;3.51;48.77;99605.88;4387838;32;34385;-76
2021/12/26 20:08:12;;;;;;;25.67;12.60;;;;;;;3.36;49.45;99607.53;4386249;32;34282;-76
2021/12/26 20:10:44;;;;;;;25.95;12.20;;;;;;;3.22;49.53;99604.47;4383834;32;33199;-76
2021/12/26 20:13:11;;;;;;;18.45;9.88;;;;;;;3.26;49.33;99602.25;4374790;32;33898;-76
2021/12/26 20:15:39;;;;;;;16.85;8.95;;;;;;;3.22;49.87;99599.03;4374933;32;34436;-76
2021/12/26 20:18:09;;;;;;;17.20;9.57;;;;;;;3.29;50.28;99599.19;4392269;32;34105;-76
2021/12/26 20:20:36;;;;;;;18.58;8.65;;;;;;;3.36;50.02;99597.53;4373604;32;33603;-76
2021/12/26 20:23:04;;;;;;;15.90;8.05;;;;;;;3.22;50.26;99603.63;4365873;32;33923;-76
2021/12/26 20:25:31;;;;;;;16.23;8.07;;;;;;;3.29;49.93;99601.91;4367267;32;34069;-76
2021/12/26 20:28:00;;;;;;;10.77;4.57;;;;;;;3.36;49.78;99610.25;4373390;32;34004;-77
2021/12/26 20:30:29;;;;;;;19.33;9.13;;;;;;;4.35;84.43;99612.91;4381548;32;34146;-75
2021/12/26 20:32:58;;;;;;;18.42;8.65;;;;;;;5.60;81.97;99608.38;4395814;32;33567;-75
2021/12/26 20:35:26;;;;;;;19.98;8.55;;;;;;;5.37;72.55;99612.91;4394301;32;35354;-76
2021/12/26 20:37:58;;;;;;;15.15;7.60;;;;;;;5.02;69.34;99616.16;4384143;32;33580;-75
2021/12/26 20:40:26;;;;;;;15.30;8.02;;;;;;;4.58;61.05;99609.28;4379308;32;33653;-74
2021/12/26 20:42:53;;;;;;;16.67;7.85;;;;;;;4.46;58.85;99607.13;4373783;32;33626;-76
2021/12/26 20:45:21;;;;;;;18.12;8.20;;;;;;;4.30;56.65;99607.97;4373627;32;34652;-75
2021/12/26 20:47:49;;;;;;;15.32;7.90;;;;;;;4.26;54.09;99618.34;4373715;32;34681;-76
2021/12/26 20:50:17;;;;;;;18.67;8.90;;;;;;;4.05;53.05;99611.72;4374989;32;32335;-76
2021/12/26 20:52:45;;;;;;;19.98;8.23;;;;;;;3.95;51.00;99610.00;4401335;32;33299;-77
2021/12/26 20:55:14;;;;;;;17.95;8.50;;;;;;;3.92;50.33;99609.50;4382724;32;34354;-76
2021/12/26 20:57:47;;;;;;;14.13;7.78;;;;;;;3.72;49.76;99606.28;4386848;32;34585;-76
2021/12/26 21:00:19;;;;;;;17.58;8.52;;;;;;;3.67;49.62;99599.66;4386901;32;33330;-77
2021/12/26 21:02:46;;;;;;;15.60;7.75;;;;;;;3.66;49.37;99595.22;4380567;32;33831;-77
2021/12/26 21:05:15;;;;;;;19.02;8.43;;;;;;;3.66;49.47;99593.38;4380302;32;34432;-77
2021/12/26 21:07:43;;;;;;;14.35;7.47;;;;;;;3.56;49.43;99604.37;4380281;32;33803;-77
2021/12/26 21:10:13;;;;;;;21.60;8.75;;;;;;;3.67;49.10;99596.94;4380243;32;33454;-77
2021/12/26 21:12:41;;;;;;;15.23;7.70;;;;;;;3.53;48.96;99598.44;4368557;32;34624;-76
2021/12/26 21:15:11;;;;;;;16.20;6.97;;;;;;;3.52;48.99;99589.44;4380108;32;35082;-76
2021/12/26 21:17:39;;;;;;;20.67;8.50;;;;;;;3.36;49.33;99599.41;4380328;32;34921;-79
2021/12/26 21:20:07;;;;;;;15.15;6.95;;;;;;;3.53;69.14;99591.13;4367633;32;32165;-76
2021/12/26 21:22:35;;;;;;;51.17;15.35;;;;;;;3.81;63.26;99594.41;4367766;32;33612;-76
2021/12/26 21:25:03;;;;;;;17.92;9.57;;;;;;;4.05;74.50;99604.41;4393634;32;34581;-77
2021/12/26 21:27:31;;;;;;;16.02;8.38;;;;;;;4.39;67.18;99606.94;4380067;32;33651;-78
2021/12/26 21:29:59;;;;;;;18.83;9.30;;;;;;;4.32;63.65;99600.50;4368041;32;34153;-78
2021/12/26 21:32:34;;;;;;;15.38;8.15;;;;;;;4.15;58.30;99598.81;4369190;32;33409;-78
2021/12/26 21:35:05;;;;;;;17.83;8.15;;;;;;;3.94;52.06;99596.59;4367585;32;34575;-79
2021/12/26 21:37:33;;;;;;;17.80;8.40;;;;;;;3.86;50.77;99596.63;4380294;32;34040;-79
2021/12/26 21:40:03;;;;;;;16.52;8.43;;;;;;;3.54;49.77;99592.84;4379843;32;33584;-79
2021/12/26 21:42:36;;;;;;;16.48;8.38;;;;;;;3.24;49.94;99594.31;4380332;32;34572;-76
2021/12/26 21:45:06;;;;;;;19.02;9.35;;;;;;;3.21;50.35;99599.22;4367698;32;33901;-76
2021/12/26 21:47:35;;;;;;;20.73;9.93;;;;;;;3.56;57.01;99598.94;4385186;32;34050;-78
2021/12/26 21:50:23;;;;;;;19.87;9.07;;;;;;;3.44;52.00;99602.97;4372129;32;32953;-79
2021/12/26 21:52:53;;;;;;;19.65;9.70;;;;;;;3.12;49.44;99597.47;4387068;32;33775;-78
2021/12/26 21:55:28;;;;;;;19.95;8.95;;;;;;;3.19;49.12;99595.81;4360926;32;33509;-78
2021/12/26 21:57:59;;;;;;;17.70;9.07;;;;;;;3.24;48.98;99596.16;4384137;32;34573;-78
2021/12/26 22:00:29;;;;;;;17.27;9.18;;;;;;;2.92;49.97;99600.44;4372402;32;32816;-78
2021/12/26 22:02:59;;;;;;;17.75;9.40;;;;;;;2.94;49.89;99590.28;4385958;32;33766;-79
2021/12/26 22:05:27;;;;;;;17.60;8.70;;;;;;;2.80;50.40;99598.16;4387027;32;35327;-78
2021/12/26 22:07:57;;;;;;;17.48;9.18;;;;;;;2.75;50.67;99595.09;4387103;32;34490;-78
2021/12/26 22:10:25;;;;;;;18.87;9.82;;;;;;;2.84;50.49;99605.81;4359643;32;31812;-79
2021/12/26 22:12:52;;;;;;;22.90;10.70;;;;;;;2.75;50.71;99598.66;4374078;32;33782;-78
2021/12/26 22:15:20;;;;;;;22.92;10.43;;;;;;;2.63;50.98;99597.22;4374751;32;33736;-78
2021/12/26 22:17:50;;;;;;;22.48;10.35;;;;;;;2.50;51.21;99594.12;4374270;32;34231;-78
2021/12/26 22:20:18;;;;;;;25.17;10.57;;;;;;;2.48;50.78;99588.87;4373267;32;33392;-78
2021/12/26 22:22:45;;;;;;;23.35;11.27;;;;;;;2.75;49.83;99592.38;4374655;32;34495;-78
2021/12/26 22:25:16;;;;;;;19.27;10.48;;;;;;;2.61;49.92;99593.81;4381373;32;35106;-78
2021/12/26 22:27:45;;;;;;;21.02;10.07;;;;;;;2.62;50.21;99592.81;4379755;32;33865;-78
2021/12/26 22:30:16;;;;;;;21.12;9.93;;;;;;;2.55;50.63;99587.22;4367559;32;34378;-78
2021/12/26 22:32:44;;;;;;;21.17;9.73;;;;;;;2.33;51.11;99586.91;4367122;32;32734;-78
2021/12/26 22:35:12;;;;;;;21.02;10.38;;;;;;;2.20;51.77;99598.16;4379147;32;34275;-78
2021/12/26 22:37:40;;;;;;;20.67;10.18;;;;;;;2.39;51.82;99588.97;4367263;32;34757;-78
2021/12/26 22:40:09;;;;;;;22.48;11.27;;;;;;;2.22;52.03;99579.88;4373272;32;206271;-78
2021/12/26 22:42:36;;;;;;;25.80;11.32;;;;;;;2.30;51.64;99580.78;4379461;32;33631;-78
2021/12/26 22:45:05;;;;;;;22.20;11.75;;;;;;;2.31;51.48;99593.31;4379851;32;34682;-78
2021/12/26 22:47:33;;;;;;;22.75;11.50;;;;;;;2.23;52.09;99589.72;4379400;32;33914;-78
2021/12/26 22:50:01;;;;;;;23.83;12.50;;;;;;;2.18;51.92;99584.75;4366855;32;32475;-78
2021/12/26 22:52:28;;;;;;;21.15;11.18;;;;;;;2.36;51.25;99575.75;4367080;32;32919;-77
2021/12/26 22:54:56;;;;;;;21.30;11.02;;;;;;;2.08;51.62;99585.88;4366802;32;33019;-78
2021/12/26 22:57:24;;;;;;;26.40;12.45;;;;;;;2.22;51.46;99583.44;4366946;32;34524;-78
2021/12/26 22:59:52;;;;;;;22.80;11.95;;;;;;;2.20;51.40;99584.59;4366826;32;33215;-79
2021/12/26 23:02:19;;;;;;;28.60;12.52;;;;;;;2.26;51.03;99581.28;4366501;32;34557;-78
2021/12/26 23:04:47;;;;;;;26.20;12.73;;;;;;;2.16;51.17;99584.06;4370619;32;34326;-78
2021/12/26 23:07:19;;;;;;;24.80;12.00;;;;;;;2.14;50.81;99577.97;4387138;32;34219;-78
2021/12/26 23:09:47;;;;;;;26.92;12.68;;;;;;;2.16;50.35;99575.09;4372402;32;33410;-78
2021/12/26 23:12:31;;;;;;;26.85;12.65;;;;;;;2.11;50.79;99566.59;4361881;32;33591;-78
2021/12/26 23:15:11;;;;;;;25.17;13.32;;;;;;;1.95;51.28;99556.53;4375188;32;34658;-78
2021/12/26 23:17:39;;;;;;;25.33;12.77;;;;;;;2.11;51.21;99558.47;4371699;32;32305;-78
2021/12/26 23:20:07;;;;;;;25.83;12.50;;;;;;;2.08;51.16;99551.53;4372642;32;34314;-78
2021/12/26 23:22:35;;;;;;;23.10;12.93;;;;;;;2.08;50.76;99551.53;4373353;32;33560;-78
2021/12/26 23:25:04;;;;;;;32.37;14.00;;;;;;;1.71;52.04;99548.22;4370235;32;32902;-79
2021/12/26 23:27:32;;;;;;;25.40;12.63;;;;;;;1.97;51.34;99535.53;4359838;32;33391;-78
2021/12/26 23:29:59;;;;;;;26.20;13.37;;;;;;;1.78;51.35;99538.47;4373120;32;33471;-78
2021/12/26 23:32:27;;;;;;;27.45;12.77;;;;;;;1.99;50.71;99523.56;4372510;32;34104;-78
2021/12/26 23:34:55;;;;;;;28.00;13.80;;;;;;;2.02;50.74;99527.81;4371285;32;35657;-78
2021/12/26 23:37:25;;;;;;;26.58;13.68;;;;;;;1.87;51.78;99532.97;4373364;32;33759;-78
2021/12/26 23:39:57;;;;;;;28.53;14.70;;;;;;;1.48;53.02;99520.78;4356011;32;31723;-78
2021/12/26 23:42:27;;;;;;;28.03;14.97;;;;;;;1.88;52.16;99517.56;4372042;32;34706;-78
2021/12/26 23:44:56;;;;;;;28.20;14.70;;;;;;;1.95;52.00;99521.34;4385186;32;34327;-78
2021/12/26 23:47:24;;;;;;;30.00;15.27;;;;;;;1.88;51.72;99520.28;4387116;32;34657;-78
2021/12/26 23:49:52;;;;;;;27.70;14.07;;;;;;;1.78;51.54;99519.53;4387515;32;34127;-78
2021/12/26 23:52:19;;;;;;;28.27;14.20;;;;;;;1.87;51.03;99529.41;4375498;32;34536;-78
2021/12/26 23:54:47;;;;;;;26.15;14.23;;;;;;;1.90;50.58;99520.97;4381694;32;34125;-78
2021/12/26 23:57:15;;;;;;;25.27;13.17;;;;;;;1.94;50.27;99516.94;4370227;32;34670;-78
2021/12/26 23:59:43;;;;;;;27.13;13.57;;;;;;;1.97;50.13;99519.31;4368299;32;33236;-78
